createdAt,value
2023-04-18T00:01:45.966Z,12.51
2023-04-18T00:04:14.187Z,12.57
2023-04-18T00:06:41.206Z,12.57
2023-04-18T00:09:08.076Z,12.51
2023-04-18T00:11:35.182Z,12.44
2023-04-18T00:14:03.361Z,12.39
2023-04-18T00:16:30.649Z,12.34
2023-04-18T00:18:57.548Z,12.29
2023-04-18T00:21:25.839Z,12.23
2023-04-18T00:23:52.799Z,12.19
2023-04-18T00:26:19.915Z,12.17
2023-04-18T00:28:48.150Z,12.16
2023-04-18T00:31:15.088Z,12.11
2023-04-18T00:33:41.885Z,12.09
2023-04-18T00:36:08.923Z,12.07
2023-04-18T00:38:35.918Z,12.01
2023-04-18T00:41:02.658Z,11.92
2023-04-18T00:43:29.517Z,11.81
2023-04-18T00:45:57.292Z,11.71
2023-04-18T00:48:24.935Z,11.65
2023-04-18T00:50:54.438Z,11.56
2023-04-18T00:53:21.688Z,11.55
2023-04-18T00:55:48.620Z,11.57
2023-04-18T00:58:16.554Z,11.55
2023-04-18T01:00:43.744Z,11.51
2023-04-18T01:03:14.451Z,11.48
2023-04-18T01:05:41.503Z,11.45
2023-04-18T01:08:08.455Z,11.44
2023-04-18T01:10:36.125Z,11.45
2023-04-18T01:13:16.994Z,11.45
2023-04-18T01:15:45.784Z,11.42
2023-04-18T01:18:17.075Z,11.41
2023-04-18T01:20:49.823Z,11.36
2023-04-18T01:23:17.737Z,11.26
2023-04-18T01:25:45.707Z,11.16
2023-04-18T01:28:14.624Z,11.10
2023-04-18T01:30:41.744Z,11.04
2023-04-18T01:33:08.383Z,10.93
2023-04-18T01:35:35.420Z,10.86
2023-04-18T01:38:02.470Z,10.85
2023-04-18T01:40:30.161Z,10.80
2023-04-18T01:42:56.867Z,10.77
2023-04-18T01:45:23.788Z,10.81
2023-04-18T01:47:50.601Z,10.83
2023-04-18T01:50:17.774Z,10.83
2023-04-18T01:52:44.651Z,10.84
2023-04-18T01:55:11.623Z,10.85
2023-04-18T01:57:38.402Z,10.82
2023-04-18T02:00:06.663Z,10.76
2023-04-18T02:02:42.493Z,10.70
2023-04-18T02:05:09.650Z,10.62
2023-04-18T02:07:38.921Z,10.56
2023-04-18T02:10:06.228Z,10.50
2023-04-18T02:12:34.316Z,10.47
2023-04-18T02:15:01.149Z,10.52
2023-04-18T02:17:28.837Z,10.53
2023-04-18T02:19:55.853Z,10.58
2023-04-18T02:22:22.531Z,10.62
2023-04-18T02:24:49.240Z,10.63
2023-04-18T02:27:16.120Z,10.63
2023-04-18T02:29:42.922Z,10.61
2023-04-18T02:32:09.833Z,10.59
2023-04-18T02:34:36.946Z,10.61
2023-04-18T02:37:04.688Z,10.64
2023-04-18T02:39:32.491Z,10.65
2023-04-18T02:41:59.152Z,10.71
2023-04-18T02:44:29.017Z,10.80
2023-04-18T02:46:56.125Z,10.85
2023-04-18T02:49:22.870Z,10.91
2023-04-18T02:51:50.059Z,10.93
2023-04-18T02:54:17.605Z,10.91
2023-04-18T02:56:57.041Z,10.92
2023-04-18T02:59:46.714Z,10.97
2023-04-18T03:02:45.972Z,10.99
2023-04-18T03:05:30.006Z,10.98
2023-04-18T03:08:05.285Z,10.95
2023-04-18T03:10:32.883Z,10.92
2023-04-18T03:13:00.062Z,10.93
2023-04-18T03:15:27.669Z,10.91
2023-04-18T03:17:54.633Z,10.90
2023-04-18T03:20:23.661Z,10.88
2023-04-18T03:23:13.083Z,10.80
2023-04-18T03:25:40.126Z,10.76
2023-04-18T03:28:06.761Z,10.71
2023-04-18T03:30:34.676Z,10.68
2023-04-18T03:33:03.092Z,10.69
2023-04-18T03:35:30.906Z,10.72
2023-04-18T03:37:57.956Z,10.67
2023-04-18T03:40:28.457Z,10.63
2023-04-18T03:43:02.458Z,10.61
2023-04-18T03:45:29.434Z,10.62
2023-04-18T03:48:01.094Z,10.61
2023-04-18T03:50:29.147Z,10.60
2023-04-18T03:52:57.033Z,10.58
2023-04-18T03:55:23.777Z,10.60
2023-04-18T03:57:50.874Z,10.64
2023-04-18T04:00:26.223Z,10.64
2023-04-18T04:03:00.519Z,10.61
2023-04-18T04:05:27.908Z,10.52
2023-04-18T04:07:57.821Z,10.39
2023-04-18T04:10:24.494Z,10.20
2023-04-18T04:12:51.615Z,10.00
2023-04-18T04:15:18.754Z,9.89
2023-04-18T04:18:06.719Z,9.80
2023-04-18T04:20:36.060Z,9.74
2023-04-18T04:23:10.086Z,9.68
2023-04-18T04:25:39.197Z,9.65
2023-04-18T04:28:14.508Z,9.66
2023-04-18T04:30:53.167Z,9.70
2023-04-18T04:33:21.710Z,9.71
2023-04-18T04:35:49.691Z,9.69
2023-04-18T04:38:20.067Z,9.61
2023-04-18T04:40:47.716Z,9.51
2023-04-18T04:43:15.644Z,9.46
2023-04-18T04:45:45.322Z,9.45
2023-04-18T04:48:12.646Z,9.43
2023-04-18T04:50:41.625Z,9.47
2023-04-18T04:53:11.852Z,9.48
2023-04-18T04:55:38.953Z,9.52
2023-04-18T04:58:05.720Z,9.59
2023-04-18T05:00:58.724Z,9.67
2023-04-18T05:03:26.877Z,9.78
2023-04-18T05:05:53.943Z,9.83
2023-04-18T05:08:20.728Z,9.81
2023-04-18T05:10:47.689Z,9.82
2023-04-18T05:13:14.372Z,9.88
2023-04-18T05:15:41.159Z,9.92
2023-04-18T05:18:08.295Z,10.00
2023-04-18T05:20:35.192Z,10.03
2023-04-18T05:23:02.061Z,10.06
2023-04-18T05:25:29.910Z,10.10
2023-04-18T05:27:56.771Z,10.22
2023-04-18T05:30:23.520Z,10.36
2023-04-18T05:32:50.459Z,10.45
2023-04-18T05:35:17.347Z,10.52
2023-04-18T05:37:44.046Z,10.56
2023-04-18T05:40:13.033Z,10.58
2023-04-18T05:42:39.970Z,10.59
2023-04-18T05:45:07.238Z,10.61
2023-04-18T05:47:34.109Z,10.59
2023-04-18T05:50:00.957Z,10.56
2023-04-18T05:52:27.890Z,10.56
2023-04-18T05:54:54.660Z,10.54
2023-04-18T05:57:21.411Z,10.57
2023-04-18T05:59:48.149Z,10.63
2023-04-18T06:02:15.410Z,10.71
2023-04-18T06:04:42.760Z,10.75
2023-04-18T06:07:10.811Z,10.90
2023-04-18T06:09:37.607Z,11.04
2023-04-18T06:12:04.519Z,11.17
2023-04-18T06:14:31.300Z,11.30
2023-04-18T06:16:58.512Z,11.40
2023-04-18T06:19:25.257Z,11.45
2023-04-18T06:21:52.732Z,11.40
2023-04-18T06:24:22.102Z,11.29
2023-04-18T06:26:49.076Z,11.20
2023-04-18T06:29:17.938Z,11.14
2023-04-18T06:31:46.730Z,11.22
2023-04-18T06:34:14.428Z,11.24
2023-04-18T06:36:41.340Z,11.21
2023-04-18T06:39:08.544Z,11.30
2023-04-18T06:41:35.346Z,11.55
2023-04-18T06:44:04.083Z,11.76
2023-04-18T06:46:32.643Z,12.01
2023-04-18T06:48:59.934Z,12.13
2023-04-18T06:51:27.581Z,12.19
2023-04-18T06:53:54.600Z,12.23
2023-04-18T06:56:22.526Z,12.31
2023-04-18T06:58:49.855Z,12.24
2023-04-18T07:01:16.764Z,12.12
2023-04-18T07:03:44.252Z,11.94
2023-04-18T07:06:11.301Z,11.90
2023-04-18T07:08:38.426Z,11.91
2023-04-18T07:11:06.599Z,11.81
2023-04-18T07:13:33.610Z,11.86
2023-04-18T07:16:01.790Z,11.96
2023-04-18T07:18:37.201Z,11.94
2023-04-18T07:21:09.160Z,11.85
2023-04-18T07:23:36.074Z,11.86
2023-04-18T07:26:03.385Z,11.90
2023-04-18T07:28:32.134Z,12.02
2023-04-18T07:30:59.627Z,12.13
2023-04-18T07:33:26.618Z,12.18
2023-04-18T07:35:53.398Z,12.23
2023-04-18T07:38:20.565Z,12.34
2023-04-18T07:40:47.485Z,12.42
2023-04-18T07:43:14.770Z,12.45
2023-04-18T07:45:43.380Z,12.48
2023-04-18T07:48:14.228Z,12.55
2023-04-18T07:50:44.797Z,12.71
2023-04-18T07:53:11.657Z,12.82
2023-04-18T07:55:39.291Z,12.84
2023-04-18T07:58:06.137Z,12.97
2023-04-18T08:00:37.097Z,13.18
2023-04-18T08:03:03.927Z,13.30
2023-04-18T08:05:30.940Z,13.25
2023-04-18T08:07:57.707Z,13.29
2023-04-18T08:10:24.567Z,13.27
2023-04-18T08:12:51.457Z,13.11
2023-04-18T08:15:18.348Z,12.96
2023-04-18T08:17:45.332Z,12.95
2023-04-18T08:20:13.125Z,13.12
2023-04-18T08:22:50.440Z,13.28
2023-04-18T08:25:26.890Z,13.58
2023-04-18T08:27:53.603Z,14.28
2023-04-18T08:30:20.561Z,14.83
2023-04-18T08:32:47.429Z,15.10
2023-04-18T08:35:14.171Z,15.21
2023-04-18T08:37:41.125Z,15.18
2023-04-18T08:40:08.309Z,15.15
2023-04-18T08:42:36.734Z,15.03
2023-04-18T08:45:04.294Z,14.86
2023-04-18T08:47:31.369Z,14.78
2023-04-18T08:49:58.540Z,14.43
2023-04-18T08:52:27.286Z,14.12
2023-04-18T08:54:54.036Z,13.93
2023-04-18T08:57:27.199Z,13.84
2023-04-18T08:59:55.411Z,13.88
2023-04-18T09:02:23.457Z,14.17
2023-04-18T09:04:53.104Z,14.54
2023-04-18T09:07:27.796Z,15.84
2023-04-18T09:09:59.297Z,21.21
2023-04-18T09:12:28.352Z,25.50
2023-04-18T09:15:14.118Z,28.74
2023-04-18T09:17:43.588Z,28.43
2023-04-18T09:20:11.842Z,26.13
2023-04-18T09:22:52.972Z,23.45
2023-04-18T09:25:30.192Z,21.05
2023-04-18T09:28:00.990Z,19.85
2023-04-18T09:30:38.062Z,20.93
2023-04-18T09:33:10.126Z,25.20
2023-04-18T09:35:37.993Z,24.91
2023-04-18T09:38:06.126Z,22.41
2023-04-18T09:40:34.311Z,20.43
2023-04-18T09:43:01.372Z,19.03
2023-04-18T09:45:29.246Z,18.07
2023-04-18T09:47:56.518Z,17.43
2023-04-18T09:50:23.440Z,17.23
2023-04-18T09:52:50.294Z,16.93
2023-04-18T09:55:18.797Z,16.73
2023-04-18T09:57:47.712Z,16.55
2023-04-18T10:00:38.200Z,16.32
2023-04-18T10:03:09.984Z,16.15
2023-04-18T10:05:44.151Z,16.00
2023-04-18T10:08:13.467Z,15.94
2023-04-18T10:10:41.255Z,16.01
2023-04-18T10:13:11.142Z,16.51
2023-04-18T10:15:39.079Z,16.70
2023-04-18T10:18:14.224Z,17.04
2023-04-18T10:20:42.058Z,17.39
2023-04-18T10:23:40.714Z,17.33
2023-04-18T10:26:09.567Z,19.27
2023-04-18T10:28:59.713Z,25.72
2023-04-18T10:31:34.560Z,26.43
2023-04-18T10:34:05.597Z,25.33
2023-04-18T10:36:33.472Z,23.56
2023-04-18T10:39:22.950Z,23.26
2023-04-18T10:41:51.512Z,28.23
2023-04-18T10:44:24.915Z,29.83
2023-04-18T10:46:55.049Z,28.13
2023-04-18T10:49:30.248Z,28.06
2023-04-18T10:52:01.803Z,29.21
2023-04-18T10:54:55.231Z,26.60
2023-04-18T10:57:23.225Z,24.18
2023-04-18T10:59:51.968Z,22.75
2023-04-18T11:02:25.655Z,22.23
2023-04-18T11:07:48.549Z,22.88
2023-04-18T11:10:25.673Z,26.49
2023-04-18T11:12:54.027Z,29.48
2023-04-18T11:15:22.902Z,31.31
2023-04-18T11:18:00.203Z,29.94
2023-04-18T11:20:28.693Z,30.16
2023-04-18T11:23:00.896Z,31.74
2023-04-18T11:25:36.826Z,32.45
2023-04-18T11:28:14.336Z,32.56
2023-04-18T11:30:42.285Z,30.61
2023-04-18T11:33:12.245Z,28.49
2023-04-18T11:35:48.307Z,26.76
2023-04-18T11:38:16.153Z,25.96
2023-04-18T11:40:50.775Z,24.62
2023-04-18T11:43:22.789Z,23.83
2023-04-18T11:45:54.587Z,24.54
2023-04-18T11:48:21.601Z,24.76
2023-04-18T11:50:48.533Z,25.10
2023-04-18T11:53:15.312Z,25.54
2023-04-18T11:55:54.075Z,27.30
2023-04-18T11:58:35.840Z,29.12
2023-04-18T12:01:22.028Z,31.11
2023-04-18T12:04:06.931Z,30.82
2023-04-18T12:07:00.975Z,28.57
2023-04-18T12:09:30.826Z,27.02
2023-04-18T12:12:10.869Z,25.69
2023-04-18T12:15:02.242Z,24.42
2023-04-18T12:17:48.540Z,23.21
2023-04-18T12:23:46.244Z,21.93
2023-04-18T12:26:29.229Z,21.72
2023-04-18T12:29:24.457Z,21.33
2023-04-18T12:32:09.630Z,20.84
2023-04-18T12:34:37.348Z,20.36
2023-04-18T12:37:05.092Z,19.83
2023-04-18T12:39:31.859Z,19.56
2023-04-18T12:41:58.640Z,19.26
2023-04-18T12:44:25.707Z,19.00
2023-04-18T12:46:52.505Z,18.83
2023-04-18T12:49:19.791Z,18.86
2023-04-18T12:51:46.622Z,19.10
2023-04-18T12:54:13.722Z,19.44
2023-04-18T12:56:40.727Z,19.67
2023-04-18T12:59:07.442Z,19.92
2023-04-18T13:01:34.228Z,20.18
2023-04-18T13:04:11.808Z,20.37
2023-04-18T13:06:40.087Z,20.44
2023-04-18T13:09:06.815Z,20.25
2023-04-18T13:11:33.584Z,20.04
2023-04-18T13:14:00.401Z,20.18
2023-04-18T13:16:27.109Z,20.28
2023-04-18T13:18:55.735Z,20.25
2023-04-18T13:21:25.227Z,20.34
2023-04-18T13:23:52.252Z,20.12
2023-04-18T13:26:19.081Z,19.71
2023-04-18T13:28:46.590Z,19.35
2023-04-18T13:31:14.514Z,19.08
2023-04-18T13:33:43.161Z,18.90
2023-04-18T13:36:10.064Z,18.83
2023-04-18T13:38:37.461Z,18.95
2023-04-18T13:41:12.187Z,18.90
2023-04-18T13:43:40.245Z,18.90
2023-04-18T13:46:07.487Z,19.04
2023-04-18T13:48:34.683Z,19.20
2023-04-18T13:51:02.814Z,19.51
2023-04-18T13:53:30.858Z,19.66
2023-04-18T13:56:01.275Z,19.55
2023-04-18T13:58:28.232Z,19.32
2023-04-18T14:00:55.100Z,19.30
2023-04-18T14:03:22.095Z,19.35
2023-04-18T14:05:49.074Z,19.35
2023-04-18T14:08:15.991Z,19.58
2023-04-18T14:10:42.793Z,19.75
2023-04-18T14:13:09.443Z,19.86
2023-04-18T14:15:36.575Z,19.79
2023-04-18T14:18:03.812Z,19.58
2023-04-18T14:20:34.554Z,19.38
2023-04-18T14:23:02.119Z,19.15
2023-04-18T14:25:30.009Z,19.14
2023-04-18T14:28:09.668Z,19.21
2023-04-18T14:30:37.066Z,19.29
2023-04-18T14:33:04.526Z,19.47
2023-04-18T14:35:32.013Z,19.48
2023-04-18T14:37:58.867Z,19.59
2023-04-18T14:40:25.636Z,19.58
2023-04-18T14:42:52.770Z,19.36
2023-04-18T14:45:19.664Z,19.18
2023-04-18T14:47:46.799Z,19.08
2023-04-18T14:50:13.794Z,19.04
2023-04-18T14:52:41.285Z,19.15
2023-04-18T14:55:09.507Z,19.17
2023-04-18T14:57:38.048Z,18.89
2023-04-18T15:00:10.019Z,18.66
2023-04-18T15:02:38.006Z,18.72
2023-04-18T15:05:11.597Z,19.15
2023-04-18T15:07:38.730Z,19.14
2023-04-18T15:10:08.608Z,19.10
2023-04-18T15:12:35.606Z,19.09
2023-04-18T15:15:02.673Z,19.05
2023-04-18T15:17:30.357Z,18.94
2023-04-18T15:19:59.277Z,18.72
2023-04-18T15:22:26.584Z,18.46
2023-04-18T15:24:53.531Z,18.27
2023-04-18T15:27:23.027Z,18.27
2023-04-18T15:29:49.810Z,18.35
2023-04-18T15:32:16.854Z,18.44
2023-04-18T15:34:44.021Z,18.52
2023-04-18T15:37:11.232Z,18.58
2023-04-18T15:39:38.757Z,18.74
2023-04-18T15:42:06.334Z,18.85
2023-04-18T15:44:33.369Z,18.86
2023-04-18T15:47:01.980Z,18.69
2023-04-18T15:49:29.283Z,18.50
2023-04-18T15:51:56.992Z,18.37
2023-04-18T15:54:23.868Z,18.37
2023-04-18T15:56:50.944Z,18.32
2023-04-18T15:59:18.367Z,18.26
2023-04-18T16:01:46.156Z,18.22
2023-04-18T16:04:13.545Z,18.21
2023-04-18T16:06:40.825Z,18.29
2023-04-18T16:09:07.747Z,18.57
2023-04-18T16:11:34.932Z,18.65
2023-04-18T16:14:02.026Z,18.57
2023-04-18T16:16:29.689Z,18.43
2023-04-18T16:18:56.821Z,18.30
2023-04-18T16:21:23.836Z,18.20
2023-04-18T16:23:54.949Z,18.11
2023-04-18T16:26:23.991Z,18.07
2023-04-18T16:28:51.395Z,18.08
2023-04-18T16:31:18.547Z,18.10
2023-04-18T16:33:47.302Z,18.11
2023-04-18T16:36:14.976Z,18.05
2023-04-18T16:38:42.625Z,17.98
2023-04-18T16:41:09.842Z,17.90
2023-04-18T16:43:45.301Z,17.81
2023-04-18T16:46:13.948Z,17.69
2023-04-18T16:48:41.816Z,17.61
2023-04-18T16:51:08.672Z,17.62
2023-04-18T16:53:37.101Z,17.61
2023-04-18T16:56:05.691Z,17.47
2023-04-18T16:58:35.988Z,17.30
2023-04-18T17:01:03.397Z,17.23
2023-04-18T17:03:40.004Z,17.23
2023-04-18T17:06:10.246Z,17.27
2023-04-18T17:08:37.497Z,17.27
2023-04-18T17:11:08.891Z,17.18
2023-04-18T17:13:41.914Z,17.01
2023-04-18T17:16:10.218Z,16.90
2023-04-18T17:18:37.461Z,16.78
2023-04-18T17:21:08.246Z,16.60
2023-04-18T17:23:38.417Z,16.39
2023-04-18T17:26:13.027Z,16.24
2023-04-18T17:28:40.388Z,16.09
2023-04-18T17:31:12.422Z,16.01
2023-04-18T17:33:44.549Z,15.95
2023-04-18T17:36:20.269Z,15.93
2023-04-18T17:39:20.563Z,16.00
2023-04-18T17:42:48.956Z,16.07
2023-04-18T17:45:43.553Z,15.98
2023-04-18T17:48:31.212Z,15.82
2023-04-18T17:51:17.923Z,15.70
2023-04-18T17:53:56.129Z,15.64
2023-04-18T17:56:54.915Z,15.58
2023-04-18T17:59:47.377Z,15.45
2023-04-18T18:02:20.786Z,15.31
2023-04-18T18:04:57.878Z,15.19
2023-04-18T18:07:37.947Z,15.07
2023-04-18T18:10:06.434Z,14.94
2023-04-18T18:12:35.805Z,14.88
2023-04-18T18:15:07.494Z,14.84
2023-04-18T18:17:34.764Z,14.79
2023-04-18T18:20:13.278Z,14.78
2023-04-18T18:22:41.769Z,14.80
2023-04-18T18:25:09.362Z,14.88
2023-04-18T18:27:36.991Z,14.96
2023-04-18T18:30:04.461Z,14.99
2023-04-18T18:32:31.395Z,15.00
2023-04-18T18:34:58.533Z,15.01
2023-04-18T18:37:27.145Z,15.03
2023-04-18T18:39:57.120Z,15.01
2023-04-18T18:42:24.025Z,15.02
2023-04-18T18:44:50.687Z,15.01
2023-04-18T18:47:19.961Z,14.98
2023-04-18T18:49:47.465Z,15.00
2023-04-18T18:52:16.382Z,14.98
2023-04-18T18:54:43.068Z,14.93
2023-04-18T18:57:09.947Z,14.90
2023-04-18T18:59:37.046Z,14.84
2023-04-18T19:02:05.428Z,14.84
2023-04-18T19:04:40.156Z,14.82
2023-04-18T19:07:07.320Z,14.81
2023-04-18T19:09:34.817Z,14.80
2023-04-18T19:12:04.132Z,14.81
2023-04-18T19:14:32.229Z,14.84
2023-04-18T19:16:59.745Z,14.77
2023-04-18T19:19:26.870Z,14.75
2023-04-18T19:21:53.708Z,14.72
2023-04-18T19:24:20.927Z,14.74
2023-04-18T19:26:48.576Z,14.73
2023-04-18T19:29:15.752Z,14.70
2023-04-18T19:31:43.820Z,14.68
2023-04-18T19:34:11.821Z,14.67
2023-04-18T19:36:38.715Z,14.64
2023-04-18T19:39:05.756Z,14.58
2023-04-18T19:41:33.209Z,14.50
2023-04-18T19:44:01.029Z,14.48
2023-04-18T19:46:27.744Z,14.47
2023-04-18T19:48:54.813Z,14.40
2023-04-18T19:51:24.428Z,14.35
2023-04-18T19:53:51.273Z,14.29
2023-04-18T19:56:18.161Z,14.26
2023-04-18T19:58:46.242Z,14.21
2023-04-18T20:01:14.835Z,14.13
2023-04-18T20:03:42.840Z,14.06
2023-04-18T20:06:10.216Z,14.05
2023-04-18T20:08:42.258Z,14.06
2023-04-18T20:11:10.464Z,14.07
2023-04-18T20:13:38.161Z,14.10
2023-04-18T20:16:06.005Z,14.14
2023-04-18T20:18:35.696Z,14.11
2023-04-18T20:21:02.737Z,14.07
2023-04-18T20:23:29.452Z,14.04
2023-04-18T20:25:56.292Z,14.08
2023-04-18T20:28:23.067Z,14.05
2023-04-18T20:30:50.412Z,14.04
2023-04-18T20:33:17.378Z,14.04
2023-04-18T20:35:44.797Z,14.01
2023-04-18T20:38:12.329Z,14.00
2023-04-18T20:40:39.824Z,13.98
2023-04-18T20:43:10.265Z,13.95
2023-04-18T20:45:37.732Z,13.94
2023-04-18T20:48:05.516Z,13.96
2023-04-18T20:50:32.511Z,13.97
2023-04-18T20:53:00.710Z,13.94
2023-04-18T20:55:28.501Z,13.96
2023-04-18T20:57:57.862Z,13.95
2023-04-18T21:00:29.111Z,13.97
2023-04-18T21:02:56.430Z,13.92
2023-04-18T21:05:46.246Z,13.89
2023-04-18T21:08:18.325Z,13.88
2023-04-18T21:10:45.765Z,13.85
2023-04-18T21:13:21.185Z,13.80
2023-04-18T21:15:52.011Z,13.78
2023-04-18T21:18:21.140Z,13.77
2023-04-18T21:20:47.849Z,13.76
2023-04-18T21:23:14.558Z,13.77
2023-04-18T21:25:41.280Z,13.76
2023-04-18T21:28:09.410Z,13.73
2023-04-18T21:30:36.201Z,13.72
2023-04-18T21:33:03.914Z,13.72
2023-04-18T21:35:30.804Z,13.70
2023-04-18T21:38:00.490Z,13.67
2023-04-18T21:40:27.243Z,13.66
2023-04-18T21:42:53.963Z,13.67
2023-04-18T21:45:20.789Z,13.65
2023-04-18T21:47:48.086Z,13.71
2023-04-18T21:50:15.496Z,13.72
2023-04-18T21:52:44.582Z,13.74
2023-04-18T21:55:12.941Z,13.77
2023-04-18T21:57:40.217Z,13.79
2023-04-18T22:00:10.335Z,13.77
2023-04-18T22:02:40.083Z,13.74
2023-04-18T22:05:08.117Z,13.77
2023-04-18T22:07:46.130Z,13.77
2023-04-18T22:10:22.826Z,13.74
2023-04-18T22:12:59.614Z,13.71
2023-04-18T22:15:30.392Z,13.68
2023-04-18T22:18:02.263Z,13.68
2023-04-18T22:20:47.532Z,13.63
2023-04-18T22:23:17.831Z,13.56
2023-04-18T22:25:45.098Z,13.51
2023-04-18T22:28:21.680Z,13.48
2023-04-18T22:30:51.842Z,13.40
2023-04-18T22:33:22.540Z,13.33
2023-04-18T22:35:49.781Z,13.28
2023-04-18T22:38:17.309Z,13.25
2023-04-18T22:40:50.216Z,13.24
2023-04-18T22:43:22.961Z,13.19
2023-04-18T22:45:52.733Z,13.16
2023-04-18T22:48:34.770Z,13.13
2023-04-18T22:51:05.085Z,13.10
2023-04-18T22:53:35.070Z,13.07
2023-04-18T22:56:01.903Z,13.07
2023-04-18T22:58:34.920Z,13.07
2023-04-18T23:01:07.776Z,13.05
2023-04-18T23:03:35.030Z,13.03
2023-04-18T23:06:02.234Z,13.00
2023-04-18T23:08:29.191Z,12.96
2023-04-18T23:10:58.049Z,12.94
2023-04-18T23:13:24.850Z,12.94
2023-04-18T23:15:52.436Z,12.92
2023-04-18T23:18:26.855Z,12.92
2023-04-18T23:21:07.114Z,12.92
2023-04-18T23:23:40.808Z,12.93
2023-04-18T23:26:14.867Z,12.94
2023-04-18T23:28:46.003Z,12.94
2023-04-18T23:31:22.455Z,12.95
2023-04-18T23:33:49.572Z,12.96
2023-04-18T23:36:19.886Z,12.96
2023-04-18T23:38:51.147Z,12.96
2023-04-18T23:41:22.456Z,12.95
2023-04-18T23:43:49.810Z,12.95
2023-04-18T23:46:47.872Z,12.96
2023-04-18T23:49:28.632Z,12.95
2023-04-18T23:52:29.344Z,12.96
2023-04-18T23:58:28.717Z,12.91
